Houghton, Michigan
Current Conditions -  °F | °C
As of 8:53 PM on Friday 21 Nov 2014 (Local Time) from KCMX Reporting Station
Clear Clear  
Wind Chill: 17°   Ceiling: Unl
Heat Index: 26°   Visibility: 10mi
Dew Point: 11°   Wind: 9mph
Humidity: 53%   Direction: 220°SW
Pressure: 29.82"   Gusts: NA
Location:  47.12°N, 88.57°W
Report Text: KCMX 220153Z AUTO 22008KT 10SM CLR M03/M12 A2982 RMK AO2 SLP118 T10331117
Loading
Personal Weather Stations






























Interactive Weather Map New forecast layout! Learn more

10-Day Weather Forecast

Advertisements
Track Severe Weather on mobile